TimeCDT,TemperatureF,Dew PointF,Humidity,Sea Level PressureIn,VisibilityMPH,Wind Direction,Wind SpeedMPH,Gust SpeedMPH,PrecipitationIn,Events,Conditions,WindDirDegrees,DateUTC
12:54 AM,60.1,52.0,75,30.19,10.0,Calm,Calm,-,N/A,,Clear,0,2013-09-13 05:54:00
1:54 AM,54.0,51.1,90,30.20,10.0,North,4.6,-,N/A,,Clear,350,2013-09-13 06:54:00
2:54 AM,54.0,51.1,90,30.19,10.0,North,5.8,-,N/A,,Clear,350,2013-09-13 07:54:00
3:54 AM,52.0,48.9,89,30.19,10.0,North,4.6,-,N/A,,Clear,350,2013-09-13 08:54:00
4:54 AM,53.1,50.0,89,30.21,10.0,North,3.5,-,N/A,,Clear,350,2013-09-13 09:54:00
5:54 AM,50.0,48.0,93,30.21,10.0,North,3.5,-,N/A,,Clear,360,2013-09-13 10:54:00
6:54 AM,48.9,46.9,93,30.22,10.0,North,4.6,-,N/A,,Clear,10,2013-09-13 11:54:00
7:54 AM,54.0,51.1,90,30.23,10.0,North,3.5,-,N/A,,Clear,350,2013-09-13 12:54:00
8:54 AM,57.9,52.0,81,30.23,10.0,Calm,Calm,-,N/A,,Clear,0,2013-09-13 13:54:00
9:54 AM,63.0,52.0,67,30.23,10.0,East,3.5,-,N/A,,Clear,90,2013-09-13 14:54:00
10:54 AM,68.0,51.1,55,30.24,10.0,SSE,3.5,-,N/A,,Clear,160,2013-09-13 15:54:00
11:54 AM,71.1,48.9,45,30.21,10.0,SSE,5.8,-,N/A,,Clear,150,2013-09-13 16:54:00
12:54 PM,73.0,46.9,39,30.19,10.0,ESE,8.1,-,N/A,,Clear,110,2013-09-13 17:54:00
1:54 PM,75.9,48.9,38,30.16,10.0,ESE,5.8,-,N/A,,Clear,120,2013-09-13 18:54:00
2:54 PM,75.0,46.9,37,30.14,10.0,Calm,Calm,-,N/A,,Clear,0,2013-09-13 19:54:00
3:54 PM,75.0,48.0,38,30.12,10.0,Calm,Calm,-,N/A,,Clear,0,2013-09-13 20:54:00
4:54 PM,75.0,46.9,37,30.11,10.0,Variable,6.9,-,N/A,,Clear,0,2013-09-13 21:54:00
5:54 PM,73.0,46.9,39,30.10,10.0,SE,4.6,-,N/A,,Clear,130,2013-09-13 22:54:00
6:54 PM,72.0,48.0,43,30.08,10.0,ESE,8.1,-,N/A,,Clear,120,2013-09-13 23:54:00
7:54 PM,68.0,48.0,49,30.08,10.0,SE,6.9,-,N/A,,Clear,130,2013-09-14 00:54:00
8:54 PM,66.0,50.0,56,30.09,10.0,Calm,Calm,-,N/A,,Clear,0,2013-09-14 01:54:00
9:54 PM,63.0,52.0,67,30.09,10.0,South,3.5,-,N/A,,Clear,180,2013-09-14 02:54:00
10:38 PM,62.6,51.8,68,30.10,10.0,North,-9999.0,-,N/A,,Clear,0,2013-09-14 03:38:00
10:54 PM,62.1,52.0,70,30.08,10.0,Calm,Calm,-,N/A,,Clear,0,2013-09-14 03:54:00
11:54 PM,60.1,52.0,75,30.08,10.0,SSE,3.5,-,N/A,,Clear,150,2013-09-14 04:54:00